sensor_id;sensor_type;location;lat;lon;timestamp;temperature;humidity
65369;HTU21D;51970;53.484;49.488;2022-07-18T00:00:17;20.30;76.58
65369;HTU21D;51970;53.484;49.488;2022-07-18T00:02:43;20.24;76.93
65369;HTU21D;51970;53.484;49.488;2022-07-18T00:05:09;20.17;77.22
65369;HTU21D;51970;53.484;49.488;2022-07-18T00:07:35;20.07;77.40
65369;HTU21D;51970;53.484;49.488;2022-07-18T00:10:01;20.09;77.50
65369;HTU21D;51970;53.484;49.488;2022-07-18T00:12:27;20.07;77.35
65369;HTU21D;51970;53.484;49.488;2022-07-18T00:14:53;20.07;77.37
65369;HTU21D;51970;53.484;49.488;2022-07-18T00:17:19;20.07;77.35
65369;HTU21D;51970;53.484;49.488;2022-07-18T00:19:46;20.06;77.27
65369;HTU21D;51970;53.484;49.488;2022-07-18T00:22:12;20.13;77.15
65369;HTU21D;51970;53.484;49.488;2022-07-18T00:24:38;20.17;76.99
65369;HTU21D;51970;53.484;49.488;2022-07-18T00:27:04;20.19;76.95
65369;HTU21D;51970;53.484;49.488;2022-07-18T00:29:33;20.18;76.89
65369;HTU21D;51970;53.484;49.488;2022-07-18T00:32:04;20.16;77.11
65369;HTU21D;51970;53.484;49.488;2022-07-18T00:34:30;20.16;77.14
65369;HTU21D;51970;53.484;49.488;2022-07-18T00:36:57;20.20;77.01
65369;HTU21D;51970;53.484;49.488;2022-07-18T00:39:24;20.21;77.05
65369;HTU21D;51970;53.484;49.488;2022-07-18T00:41:50;20.20;77.08
65369;HTU21D;51970;53.484;49.488;2022-07-18T00:44:23;20.22;76.99
65369;HTU21D;51970;53.484;49.488;2022-07-18T00:46:51;20.24;76.86
65369;HTU21D;51970;53.484;49.488;2022-07-18T00:49:18;20.30;76.61
65369;HTU21D;51970;53.484;49.488;2022-07-18T00:51:44;20.29;76.71
65369;HTU21D;51970;53.484;49.488;2022-07-18T00:54:11;20.26;76.92
65369;HTU21D;51970;53.484;49.488;2022-07-18T00:56:37;20.28;77.05
65369;HTU21D;51970;53.484;49.488;2022-07-18T00:59:03;20.22;77.35
65369;HTU21D;51970;53.484;49.488;2022-07-18T01:01:29;20.36;77.00
65369;HTU21D;51970;53.484;49.488;2022-07-18T01:04:22;20.66;75.86
65369;HTU21D;51970;53.484;49.488;2022-07-18T01:06:50;20.81;75.36
65369;HTU21D;51970;53.484;49.488;2022-07-18T01:09:17;21.43;72.96
65369;HTU21D;51970;53.484;49.488;2022-07-18T01:11:44;22.05;70.33
65369;HTU21D;51970;53.484;49.488;2022-07-18T01:14:11;22.67;68.13
65369;HTU21D;51970;53.484;49.488;2022-07-18T01:16:38;23.17;66.17
65369;HTU21D;51970;53.484;49.488;2022-07-18T01:19:04;23.72;64.14
65369;HTU21D;51970;53.484;49.488;2022-07-18T01:21:31;24.25;62.07
65369;HTU21D;51970;53.484;49.488;2022-07-18T01:23:57;24.27;61.63
65369;HTU21D;51970;53.484;49.488;2022-07-18T01:26:23;24.42;61.61
65369;HTU21D;51970;53.484;49.488;2022-07-18T01:28:49;24.91;59.89
65369;HTU21D;51970;53.484;49.488;2022-07-18T01:31:15;25.35;58.53
65369;HTU21D;51970;53.484;49.488;2022-07-18T01:33:41;25.82;57.10
65369;HTU21D;51970;53.484;49.488;2022-07-18T01:36:08;26.21;56.13
65369;HTU21D;51970;53.484;49.488;2022-07-18T01:38:35;26.42;55.41
65369;HTU21D;51970;53.484;49.488;2022-07-18T01:41:01;26.89;54.05
65369;HTU21D;51970;53.484;49.488;2022-07-18T01:43:28;27.11;53.38
65369;HTU21D;51970;53.484;49.488;2022-07-18T01:45:54;27.28;52.85
65369;HTU21D;51970;53.484;49.488;2022-07-18T01:48:21;27.50;52.24
65369;HTU21D;51970;53.484;49.488;2022-07-18T01:50:49;27.94;51.15
65369;HTU21D;51970;53.484;49.488;2022-07-18T01:53:15;28.42;49.53
65369;HTU21D;51970;53.484;49.488;2022-07-18T01:55:41;28.93;48.34
65369;HTU21D;51970;53.484;49.488;2022-07-18T01:58:07;29.42;46.72
65369;HTU21D;51970;53.484;49.488;2022-07-18T02:00:33;29.42;46.55
65369;HTU21D;51970;53.484;49.488;2022-07-18T02:02:59;29.04;46.96
65369;HTU21D;51970;53.484;49.488;2022-07-18T02:05:25;29.20;47.24
65369;HTU21D;51970;53.484;49.488;2022-07-18T02:07:51;29.30;46.80
65369;HTU21D;51970;53.484;49.488;2022-07-18T02:10:20;29.78;45.83
65369;HTU21D;51970;53.484;49.488;2022-07-18T02:12:47;29.85;45.03
65369;HTU21D;51970;53.484;49.488;2022-07-18T02:15:14;30.06;44.57
65369;HTU21D;51970;53.484;49.488;2022-07-18T02:17:41;30.35;44.03
65369;HTU21D;51970;53.484;49.488;2022-07-18T02:20:09;30.13;44.07
65369;HTU21D;51970;53.484;49.488;2022-07-18T02:22:35;28.89;46.93
65369;HTU21D;51970;53.484;49.488;2022-07-18T02:25:03;28.15;49.43
65369;HTU21D;51970;53.484;49.488;2022-07-18T02:27:29;27.15;52.09
65369;HTU21D;51970;53.484;49.488;2022-07-18T02:29:55;25.97;55.50
65369;HTU21D;51970;53.484;49.488;2022-07-18T02:32:21;25.39;57.13
65369;HTU21D;51970;53.484;49.488;2022-07-18T02:34:49;25.29;58.16
65369;HTU21D;51970;53.484;49.488;2022-07-18T02:37:15;25.66;56.63
65369;HTU21D;51970;53.484;49.488;2022-07-18T02:39:41;27.17;52.42
65369;HTU21D;51970;53.484;49.488;2022-07-18T02:42:07;28.49;48.28
65369;HTU21D;51970;53.484;49.488;2022-07-18T02:44:33;29.32;45.73
65369;HTU21D;51970;53.484;49.488;2022-07-18T02:47:00;30.42;42.95
65369;HTU21D;51970;53.484;49.488;2022-07-18T02:49:26;30.91;41.19
65369;HTU21D;51970;53.484;49.488;2022-07-18T02:51:55;30.55;41.85
65369;HTU21D;51970;53.484;49.488;2022-07-18T02:54:22;30.71;41.66
65369;HTU21D;51970;53.484;49.488;2022-07-18T02:56:49;31.33;40.11
65369;HTU21D;51970;53.484;49.488;2022-07-18T02:59:15;31.94;38.97
65369;HTU21D;51970;53.484;49.488;2022-07-18T03:01:41;32.39;37.88
65369;HTU21D;51970;53.484;49.488;2022-07-18T03:04:07;32.91;36.16
65369;HTU21D;51970;53.484;49.488;2022-07-18T03:06:33;32.48;37.16
65369;HTU21D;51970;53.484;49.488;2022-07-18T03:08:59;32.66;36.85
65369;HTU21D;51970;53.484;49.488;2022-07-18T03:11:25;32.69;36.85
65369;HTU21D;51970;53.484;49.488;2022-07-18T03:13:51;33.04;36.13
65369;HTU21D;51970;53.484;49.488;2022-07-18T03:16:17;33.67;34.98
65369;HTU21D;51970;53.484;49.488;2022-07-18T03:18:43;33.49;34.98
65369;HTU21D;51970;53.484;49.488;2022-07-18T03:21:09;33.42;35.25
65369;HTU21D;51970;53.484;49.488;2022-07-18T03:23:35;33.46;34.96
65369;HTU21D;51970;53.484;49.488;2022-07-18T03:26:01;33.89;34.19
65369;HTU21D;51970;53.484;49.488;2022-07-18T03:28:27;32.76;35.37
65369;HTU21D;51970;53.484;49.488;2022-07-18T03:30:53;32.69;36.00
65369;HTU21D;51970;53.484;49.488;2022-07-18T03:33:19;32.45;36.14
65369;HTU21D;51970;53.484;49.488;2022-07-18T03:35:45;32.49;36.27
65369;HTU21D;51970;53.484;49.488;2022-07-18T03:38:11;33.33;35.00
65369;HTU21D;51970;53.484;49.488;2022-07-18T03:40:37;33.88;33.70
65369;HTU21D;51970;53.484;49.488;2022-07-18T03:43:04;33.32;34.24
65369;HTU21D;51970;53.484;49.488;2022-07-18T03:45:30;31.00;37.65
65369;HTU21D;51970;53.484;49.488;2022-07-18T03:47:56;28.80;43.37
65369;HTU21D;51970;53.484;49.488;2022-07-18T03:50:22;27.87;45.52
65369;HTU21D;51970;53.484;49.488;2022-07-18T03:52:48;27.53;45.96
65369;HTU21D;51970;53.484;49.488;2022-07-18T03:55:15;27.12;47.73
65369;HTU21D;51970;53.484;49.488;2022-07-18T03:57:41;26.95;48.50
65369;HTU21D;51970;53.484;49.488;2022-07-18T04:00:08;26.85;48.37
65369;HTU21D;51970;53.484;49.488;2022-07-18T04:02:42;26.81;48.21
65369;HTU21D;51970;53.484;49.488;2022-07-18T04:05:09;26.71;48.34
65369;HTU21D;51970;53.484;49.488;2022-07-18T04:07:36;26.64;49.10
65369;HTU21D;51970;53.484;49.488;2022-07-18T04:10:03;26.57;49.27
65369;HTU21D;51970;53.484;49.488;2022-07-18T04:12:30;26.06;50.86
65369;HTU21D;51970;53.484;49.488;2022-07-18T04:14:56;25.90;51.94
65369;HTU21D;51970;53.484;49.488;2022-07-18T04:17:23;25.90;51.65
65369;HTU21D;51970;53.484;49.488;2022-07-18T04:19:49;25.74;52.73
65369;HTU21D;51970;53.484;49.488;2022-07-18T04:22:16;25.69;52.80
65369;HTU21D;51970;53.484;49.488;2022-07-18T04:24:42;25.89;52.74
65369;HTU21D;51970;53.484;49.488;2022-07-18T04:27:08;26.08;53.20
65369;HTU21D;51970;53.484;49.488;2022-07-18T04:29:34;26.40;52.33
65369;HTU21D;51970;53.484;49.488;2022-07-18T04:32:02;26.77;51.30
65369;HTU21D;51970;53.484;49.488;2022-07-18T04:34:28;26.87;51.06
65369;HTU21D;51970;53.484;49.488;2022-07-18T04:36:54;26.86;50.81
65369;HTU21D;51970;53.484;49.488;2022-07-18T04:39:20;26.86;52.07
65369;HTU21D;51970;53.484;49.488;2022-07-18T04:41:46;26.92;52.15
65369;HTU21D;51970;53.484;49.488;2022-07-18T04:44:13;26.89;53.04
65369;HTU21D;51970;53.484;49.488;2022-07-18T04:46:39;26.87;53.06
65369;HTU21D;51970;53.484;49.488;2022-07-18T04:49:05;26.91;53.12
65369;HTU21D;51970;53.484;49.488;2022-07-18T04:51:31;26.77;52.85
65369;HTU21D;51970;53.484;49.488;2022-07-18T04:53:58;26.98;52.66
65369;HTU21D;51970;53.484;49.488;2022-07-18T04:56:24;27.13;52.07
65369;HTU21D;51970;53.484;49.488;2022-07-18T04:58:51;27.16;51.53
65369;HTU21D;51970;53.484;49.488;2022-07-18T05:01:16;27.31;51.56
65369;HTU21D;51970;53.484;49.488;2022-07-18T05:03:42;27.43;51.14
65369;HTU21D;51970;53.484;49.488;2022-07-18T05:06:09;27.50;50.98
65369;HTU21D;51970;53.484;49.488;2022-07-18T05:08:35;27.59;51.22
65369;HTU21D;51970;53.484;49.488;2022-07-18T05:11:01;27.64;50.63
65369;HTU21D;51970;53.484;49.488;2022-07-18T05:13:27;27.67;51.51
65369;HTU21D;51970;53.484;49.488;2022-07-18T05:15:53;27.80;50.60
65369;HTU21D;51970;53.484;49.488;2022-07-18T05:18:19;27.89;51.17
65369;HTU21D;51970;53.484;49.488;2022-07-18T05:20:45;28.02;50.66
65369;HTU21D;51970;53.484;49.488;2022-07-18T05:23:14;28.13;50.88
65369;HTU21D;51970;53.484;49.488;2022-07-18T05:25:40;28.14;50.87
65369;HTU21D;51970;53.484;49.488;2022-07-18T05:28:06;28.13;50.70
65369;HTU21D;51970;53.484;49.488;2022-07-18T05:30:33;28.18;50.74
65369;HTU21D;51970;53.484;49.488;2022-07-18T05:32:59;27.94;51.45
65369;HTU21D;51970;53.484;49.488;2022-07-18T05:35:25;27.90;51.32
65369;HTU21D;51970;53.484;49.488;2022-07-18T05:37:51;28.11;50.83
65369;HTU21D;51970;53.484;49.488;2022-07-18T05:40:17;28.47;50.59
65369;HTU21D;51970;53.484;49.488;2022-07-18T05:42:43;28.69;48.46
65369;HTU21D;51970;53.484;49.488;2022-07-18T05:45:10;28.79;48.32
65369;HTU21D;51970;53.484;49.488;2022-07-18T05:47:37;28.52;49.12
65369;HTU21D;51970;53.484;49.488;2022-07-18T05:50:04;28.20;49.73
65369;HTU21D;51970;53.484;49.488;2022-07-18T05:52:30;28.09;49.98
65369;HTU21D;51970;53.484;49.488;2022-07-18T05:54:56;28.49;49.63
65369;HTU21D;51970;53.484;49.488;2022-07-18T05:57:22;28.35;49.37
65369;HTU21D;51970;53.484;49.488;2022-07-18T05:59:48;28.33;49.11
65369;HTU21D;51970;53.484;49.488;2022-07-18T06:02:14;28.29;49.82
65369;HTU21D;51970;53.484;49.488;2022-07-18T06:04:40;28.20;50.21
65369;HTU21D;51970;53.484;49.488;2022-07-18T06:07:07;28.32;50.11
65369;HTU21D;51970;53.484;49.488;2022-07-18T06:09:33;28.69;47.98
65369;HTU21D;51970;53.484;49.488;2022-07-18T06:11:59;29.00;47.05
65369;HTU21D;51970;53.484;49.488;2022-07-18T06:14:29;29.45;45.48
65369;HTU21D;51970;53.484;49.488;2022-07-18T06:16:56;29.57;44.01
65369;HTU21D;51970;53.484;49.488;2022-07-18T06:19:22;29.53;42.89
65369;HTU21D;51970;53.484;49.488;2022-07-18T06:21:48;29.47;42.65
65369;HTU21D;51970;53.484;49.488;2022-07-18T06:24:15;29.37;44.20
65369;HTU21D;51970;53.484;49.488;2022-07-18T06:26:41;29.53;43.14
65369;HTU21D;51970;53.484;49.488;2022-07-18T06:29:07;29.58;41.31
65369;HTU21D;51970;53.484;49.488;2022-07-18T06:31:33;29.59;41.23
65369;HTU21D;51970;53.484;49.488;2022-07-18T06:33:59;29.60;42.56
65369;HTU21D;51970;53.484;49.488;2022-07-18T06:36:25;29.78;42.37
65369;HTU21D;51970;53.484;49.488;2022-07-18T06:38:51;29.64;41.72
65369;HTU21D;51970;53.484;49.488;2022-07-18T06:41:19;29.88;41.55
65369;HTU21D;51970;53.484;49.488;2022-07-18T06:43:45;30.04;39.75
65369;HTU21D;51970;53.484;49.488;2022-07-18T06:46:11;30.20;39.62
65369;HTU21D;51970;53.484;49.488;2022-07-18T06:48:37;30.37;39.83
65369;HTU21D;51970;53.484;49.488;2022-07-18T06:51:04;30.19;40.74
65369;HTU21D;51970;53.484;49.488;2022-07-18T06:53:32;30.32;40.99
65369;HTU21D;51970;53.484;49.488;2022-07-18T06:55:58;30.36;40.48
65369;HTU21D;51970;53.484;49.488;2022-07-18T06:58:24;30.47;39.56
65369;HTU21D;51970;53.484;49.488;2022-07-18T07:00:51;30.66;39.39
65369;HTU21D;51970;53.484;49.488;2022-07-18T07:03:17;30.77;39.62
65369;HTU21D;51970;53.484;49.488;2022-07-18T07:05:43;30.83;38.11
65369;HTU21D;51970;53.484;49.488;2022-07-18T07:08:09;30.67;38.08
65369;HTU21D;51970;53.484;49.488;2022-07-18T07:10:35;30.74;39.11
65369;HTU21D;51970;53.484;49.488;2022-07-18T07:13:04;30.52;38.69
65369;HTU21D;51970;53.484;49.488;2022-07-18T07:15:30;30.39;38.53
65369;HTU21D;51970;53.484;49.488;2022-07-18T07:17:56;30.30;38.43
65369;HTU21D;51970;53.484;49.488;2022-07-18T07:20:22;30.09;38.65
65369;HTU21D;51970;53.484;49.488;2022-07-18T07:22:57;30.10;39.69
65369;HTU21D;51970;53.484;49.488;2022-07-18T07:25:25;30.22;40.40
65369;HTU21D;51970;53.484;49.488;2022-07-18T07:27:52;30.57;38.68
65369;HTU21D;51970;53.484;49.488;2022-07-18T07:30:19;30.42;38.18
65369;HTU21D;51970;53.484;49.488;2022-07-18T07:32:46;30.17;38.64
65369;HTU21D;51970;53.484;49.488;2022-07-18T07:35:15;30.34;38.81
65369;HTU21D;51970;53.484;49.488;2022-07-18T07:37:45;30.54;38.20
65369;HTU21D;51970;53.484;49.488;2022-07-18T07:40:13;30.50;37.60
65369;HTU21D;51970;53.484;49.488;2022-07-18T07:42:40;30.60;37.21
65369;HTU21D;51970;53.484;49.488;2022-07-18T07:45:07;30.45;37.20
65369;HTU21D;51970;53.484;49.488;2022-07-18T07:47:34;30.52;38.45
65369;HTU21D;51970;53.484;49.488;2022-07-18T07:50:04;30.33;37.93
65369;HTU21D;51970;53.484;49.488;2022-07-18T07:52:31;30.41;38.73
65369;HTU21D;51970;53.484;49.488;2022-07-18T07:54:57;30.84;37.78
65369;HTU21D;51970;53.484;49.488;2022-07-18T07:57:23;31.22;37.19
65369;HTU21D;51970;53.484;49.488;2022-07-18T07:59:49;31.15;36.98
65369;HTU21D;51970;53.484;49.488;2022-07-18T08:02:15;31.09;37.72
65369;HTU21D;51970;53.484;49.488;2022-07-18T08:04:42;31.27;37.59
65369;HTU21D;51970;53.484;49.488;2022-07-18T08:07:08;31.41;38.17
65369;HTU21D;51970;53.484;49.488;2022-07-18T08:09:35;31.60;36.01
65369;HTU21D;51970;53.484;49.488;2022-07-18T08:12:01;31.52;36.70
65369;HTU21D;51970;53.484;49.488;2022-07-18T08:14:29;31.48;39.43
65369;HTU21D;51970;53.484;49.488;2022-07-18T08:16:55;31.39;39.16
65369;HTU21D;51970;53.484;49.488;2022-07-18T08:19:21;31.40;38.29
65369;HTU21D;51970;53.484;49.488;2022-07-18T08:21:47;31.56;36.63
65369;HTU21D;51970;53.484;49.488;2022-07-18T08:24:13;31.73;37.75
65369;HTU21D;51970;53.484;49.488;2022-07-18T08:26:39;31.60;35.54
65369;HTU21D;51970;53.484;49.488;2022-07-18T08:29:06;31.34;37.14
65369;HTU21D;51970;53.484;49.488;2022-07-18T08:31:33;31.23;36.89
65369;HTU21D;51970;53.484;49.488;2022-07-18T08:33:59;31.06;39.28
65369;HTU21D;51970;53.484;49.488;2022-07-18T08:36:25;31.34;38.53
65369;HTU21D;51970;53.484;49.488;2022-07-18T08:38:53;31.45;36.85
65369;HTU21D;51970;53.484;49.488;2022-07-18T08:41:22;30.93;37.70
65369;HTU21D;51970;53.484;49.488;2022-07-18T08:43:49;30.69;38.74
65369;HTU21D;51970;53.484;49.488;2022-07-18T08:46:19;30.59;39.42
65369;HTU21D;51970;53.484;49.488;2022-07-18T08:48:48;30.76;38.36
65369;HTU21D;51970;53.484;49.488;2022-07-18T08:51:15;31.28;37.75
65369;HTU21D;51970;53.484;49.488;2022-07-18T08:53:41;31.51;38.17
65369;HTU21D;51970;53.484;49.488;2022-07-18T08:56:08;31.83;36.87
65369;HTU21D;51970;53.484;49.488;2022-07-18T08:58:34;31.96;35.31
65369;HTU21D;51970;53.484;49.488;2022-07-18T09:01:02;32.00;35.88
65369;HTU21D;51970;53.484;49.488;2022-07-18T09:03:28;32.15;36.42
65369;HTU21D;51970;53.484;49.488;2022-07-18T09:06:13;32.16;35.08
65369;HTU21D;51970;53.484;49.488;2022-07-18T09:08:56;32.03;35.90
65369;HTU21D;51970;53.484;49.488;2022-07-18T09:11:22;32.14;35.33
65369;HTU21D;51970;53.484;49.488;2022-07-18T09:13:49;31.98;35.92
65369;HTU21D;51970;53.484;49.488;2022-07-18T09:16:15;32.07;36.30
65369;HTU21D;51970;53.484;49.488;2022-07-18T09:18:47;31.78;36.66
65369;HTU21D;51970;53.484;49.488;2022-07-18T09:21:20;31.84;35.54
65369;HTU21D;51970;53.484;49.488;2022-07-18T09:23:49;31.93;35.97
65369;HTU21D;51970;53.484;49.488;2022-07-18T09:26:39;32.02;36.13
65369;HTU21D;51970;53.484;49.488;2022-07-18T09:29:05;32.25;35.40
65369;HTU21D;51970;53.484;49.488;2022-07-18T09:31:33;32.53;35.80
65369;HTU21D;51970;53.484;49.488;2022-07-18T09:34:03;32.53;34.05
65369;HTU21D;51970;53.484;49.488;2022-07-18T09:36:31;32.38;34.65
65369;HTU21D;51970;53.484;49.488;2022-07-18T09:39:17;32.12;35.43
65369;HTU21D;51970;53.484;49.488;2022-07-18T09:41:43;31.99;36.11
65369;HTU21D;51970;53.484;49.488;2022-07-18T09:44:16;32.10;35.28
65369;HTU21D;51970;53.484;49.488;2022-07-18T09:47:03;32.28;35.26
65369;HTU21D;51970;53.484;49.488;2022-07-18T09:49:33;32.17;35.58
65369;HTU21D;51970;53.484;49.488;2022-07-18T09:52:08;32.47;35.42
65369;HTU21D;51970;53.484;49.488;2022-07-18T09:54:43;32.82;35.15
65369;HTU21D;51970;53.484;49.488;2022-07-18T09:57:23;32.91;34.93
65369;HTU21D;51970;53.484;49.488;2022-07-18T09:59:49;32.98;35.12
65369;HTU21D;51970;53.484;49.488;2022-07-18T10:02:15;32.72;35.80
65369;HTU21D;51970;53.484;49.488;2022-07-18T10:04:43;32.82;35.35
65369;HTU21D;51970;53.484;49.488;2022-07-18T10:07:09;32.81;35.91
65369;HTU21D;51970;53.484;49.488;2022-07-18T10:09:38;33.09;35.24
65369;HTU21D;51970;53.484;49.488;2022-07-18T10:12:05;32.91;35.53
65369;HTU21D;51970;53.484;49.488;2022-07-18T10:14:32;33.14;35.24
65369;HTU21D;51970;53.484;49.488;2022-07-18T10:16:59;33.25;35.16
65369;HTU21D;51970;53.484;49.488;2022-07-18T10:19:25;32.94;36.11
65369;HTU21D;51970;53.484;49.488;2022-07-18T10:21:53;32.87;35.95
65369;HTU21D;51970;53.484;49.488;2022-07-18T10:24:21;32.53;37.00
65369;HTU21D;51970;53.484;49.488;2022-07-18T10:27:18;33.00;36.30
65369;HTU21D;51970;53.484;49.488;2022-07-18T10:30:07;33.07;36.14
65369;HTU21D;51970;53.484;49.488;2022-07-18T10:32:35;32.86;36.53
65369;HTU21D;51970;53.484;49.488;2022-07-18T10:35:01;33.18;36.44
65369;HTU21D;51970;53.484;49.488;2022-07-18T10:37:31;33.25;35.92
65369;HTU21D;51970;53.484;49.488;2022-07-18T10:45:56;32.99;36.36
65369;HTU21D;51970;53.484;49.488;2022-07-18T10:48:53;33.05;36.24
65369;HTU21D;51970;53.484;49.488;2022-07-18T10:51:28;33.16;36.52
65369;HTU21D;51970;53.484;49.488;2022-07-18T10:53:58;33.22;36.57
65369;HTU21D;51970;53.484;49.488;2022-07-18T10:59:14;33.26;35.64
65369;HTU21D;51970;53.484;49.488;2022-07-18T11:01:50;32.79;36.14
65369;HTU21D;51970;53.484;49.488;2022-07-18T11:04:33;32.90;36.81
65369;HTU21D;51970;53.484;49.488;2022-07-18T11:07:14;33.38;35.47
65369;HTU21D;51970;53.484;49.488;2022-07-18T11:09:46;33.48;35.63
65369;HTU21D;51970;53.484;49.488;2022-07-18T11:12:22;33.42;35.75
65369;HTU21D;51970;53.484;49.488;2022-07-18T11:15:03;33.66;35.80
65369;HTU21D;51970;53.484;49.488;2022-07-18T11:17:58;33.70;35.66
65369;HTU21D;51970;53.484;49.488;2022-07-18T11:20:35;33.45;35.92
65369;HTU21D;51970;53.484;49.488;2022-07-18T11:23:22;33.23;36.24
65369;HTU21D;51970;53.484;49.488;2022-07-18T11:25:53;33.27;36.02
65369;HTU21D;51970;53.484;49.488;2022-07-18T11:28:24;33.21;36.57
65369;HTU21D;51970;53.484;49.488;2022-07-18T11:31:06;33.43;35.67
65369;HTU21D;51970;53.484;49.488;2022-07-18T11:33:35;33.81;35.69
65369;HTU21D;51970;53.484;49.488;2022-07-18T11:36:09;34.03;34.90
65369;HTU21D;51970;53.484;49.488;2022-07-18T11:38:38;33.88;34.34
65369;HTU21D;51970;53.484;49.488;2022-07-18T11:41:04;33.90;34.72
65369;HTU21D;51970;53.484;49.488;2022-07-18T11:43:31;33.90;34.82
65369;HTU21D;51970;53.484;49.488;2022-07-18T11:46:05;33.91;34.78
65369;HTU21D;51970;53.484;49.488;2022-07-18T11:48:36;33.99;34.70
65369;HTU21D;51970;53.484;49.488;2022-07-18T11:51:12;33.91;34.39
65369;HTU21D;51970;53.484;49.488;2022-07-18T11:53:49;33.89;34.25
65369;HTU21D;51970;53.484;49.488;2022-07-18T11:56:17;34.02;34.54
65369;HTU21D;51970;53.484;49.488;2022-07-18T11:58:44;34.20;33.91
65369;HTU21D;51970;53.484;49.488;2022-07-18T12:01:12;34.26;33.73
65369;HTU21D;51970;53.484;49.488;2022-07-18T12:03:52;34.31;33.36
65369;HTU21D;51970;53.484;49.488;2022-07-18T12:06:22;34.26;33.11
65369;HTU21D;51970;53.484;49.488;2022-07-18T12:08:50;34.17;33.41
65369;HTU21D;51970;53.484;49.488;2022-07-18T12:11:18;34.25;33.45
65369;HTU21D;51970;53.484;49.488;2022-07-18T12:16:40;34.39;33.88
65369;HTU21D;51970;53.484;49.488;2022-07-18T12:19:09;34.38;33.19
65369;HTU21D;51970;53.484;49.488;2022-07-18T12:21:55;34.33;33.38
65369;HTU21D;51970;53.484;49.488;2022-07-18T12:24:34;34.36;32.94
65369;HTU21D;51970;53.484;49.488;2022-07-18T12:27:16;34.18;32.20
65369;HTU21D;51970;53.484;49.488;2022-07-18T12:30:12;33.49;33.25
65369;HTU21D;51970;53.484;49.488;2022-07-18T12:32:52;33.49;33.84
65369;HTU21D;51970;53.484;49.488;2022-07-18T12:37:55;33.53;33.31
65369;HTU21D;51970;53.484;49.488;2022-07-18T12:40:23;33.78;33.67
65369;HTU21D;51970;53.484;49.488;2022-07-18T12:42:56;34.10;32.50
65369;HTU21D;51970;53.484;49.488;2022-07-18T12:45:26;34.23;32.72
65369;HTU21D;51970;53.484;49.488;2022-07-18T12:47:53;34.33;32.33
65369;HTU21D;51970;53.484;49.488;2022-07-18T12:50:19;33.93;33.19
65369;HTU21D;51970;53.484;49.488;2022-07-18T12:52:46;33.44;33.90
65369;HTU21D;51970;53.484;49.488;2022-07-18T12:55:12;33.15;34.44
65369;HTU21D;51970;53.484;49.488;2022-07-18T12:57:38;33.15;35.14
65369;HTU21D;51970;53.484;49.488;2022-07-18T13:00:04;33.45;33.90
65369;HTU21D;51970;53.484;49.488;2022-07-18T13:02:30;33.71;33.32
65369;HTU21D;51970;53.484;49.488;2022-07-18T13:04:56;33.55;33.28
65369;HTU21D;51970;53.484;49.488;2022-07-18T13:07:23;33.41;33.70
65369;HTU21D;51970;53.484;49.488;2022-07-18T13:09:49;33.35;33.96
65369;HTU21D;51970;53.484;49.488;2022-07-18T13:12:17;33.40;33.98
65369;HTU21D;51970;53.484;49.488;2022-07-18T13:14:45;33.17;34.62
65369;HTU21D;51970;53.484;49.488;2022-07-18T13:17:11;32.99;34.99
65369;HTU21D;51970;53.484;49.488;2022-07-18T13:19:38;32.69;35.00
65369;HTU21D;51970;53.484;49.488;2022-07-18T13:22:06;32.48;35.41
65369;HTU21D;51970;53.484;49.488;2022-07-18T13:24:32;32.41;35.78
65369;HTU21D;51970;53.484;49.488;2022-07-18T13:26:58;32.31;36.82
65369;HTU21D;51970;53.484;49.488;2022-07-18T13:29:24;32.15;36.93
65369;HTU21D;51970;53.484;49.488;2022-07-18T13:31:50;32.00;37.64
65369;HTU21D;51970;53.484;49.488;2022-07-18T13:34:18;31.74;41.95
65369;HTU21D;51970;53.484;49.488;2022-07-18T13:36:47;31.13;45.46
65369;HTU21D;51970;53.484;49.488;2022-07-18T13:39:14;30.57;48.35
65369;HTU21D;51970;53.484;49.488;2022-07-18T13:41:40;30.25;46.23
65369;HTU21D;51970;53.484;49.488;2022-07-18T13:44:06;30.01;50.88
65369;HTU21D;51970;53.484;49.488;2022-07-18T13:46:32;29.87;49.92
65369;HTU21D;51970;53.484;49.488;2022-07-18T13:48:58;29.80;51.95
65369;HTU21D;51970;53.484;49.488;2022-07-18T13:51:24;29.43;53.88
65369;HTU21D;51970;53.484;49.488;2022-07-18T13:53:50;29.11;55.00
65369;HTU21D;51970;53.484;49.488;2022-07-18T13:56:16;28.84;55.74
65369;HTU21D;51970;53.484;49.488;2022-07-18T13:58:42;28.62;53.86
65369;HTU21D;51970;53.484;49.488;2022-07-18T14:01:08;28.54;57.07
65369;HTU21D;51970;53.484;49.488;2022-07-18T14:03:35;28.27;57.71
65369;HTU21D;51970;53.484;49.488;2022-07-18T14:06:01;28.40;54.61
65369;HTU21D;51970;53.484;49.488;2022-07-18T14:08:28;28.70;54.23
65369;HTU21D;51970;53.484;49.488;2022-07-18T14:10:54;28.84;54.02
65369;HTU21D;51970;53.484;49.488;2022-07-18T14:13:20;28.90;53.81
65369;HTU21D;51970;53.484;49.488;2022-07-18T14:15:46;28.95;54.94
65369;HTU21D;51970;53.484;49.488;2022-07-18T14:18:12;28.95;54.18
65369;HTU21D;51970;53.484;49.488;2022-07-18T14:20:38;28.91;55.74
65369;HTU21D;51970;53.484;49.488;2022-07-18T14:23:05;28.82;55.51
65369;HTU21D;51970;53.484;49.488;2022-07-18T14:25:32;28.76;53.56
65369;HTU21D;51970;53.484;49.488;2022-07-18T14:27:58;28.69;58.35
65369;HTU21D;51970;53.484;49.488;2022-07-18T14:30:24;28.48;60.24
65369;HTU21D;51970;53.484;49.488;2022-07-18T14:32:51;28.06;66.18
65369;HTU21D;51970;53.484;49.488;2022-07-18T14:35:18;25.36;80.09
65369;HTU21D;51970;53.484;49.488;2022-07-18T14:37:44;23.87;78.94
65369;HTU21D;51970;53.484;49.488;2022-07-18T14:40:10;23.72;81.62
65369;HTU21D;51970;53.484;49.488;2022-07-18T14:42:36;23.94;79.40
65369;HTU21D;51970;53.484;49.488;2022-07-18T14:45:03;24.27;80.85
65369;HTU21D;51970;53.484;49.488;2022-07-18T14:47:29;24.48;75.63
65369;HTU21D;51970;53.484;49.488;2022-07-18T14:49:57;24.66;75.11
65369;HTU21D;51970;53.484;49.488;2022-07-18T14:52:23;24.75;78.79
65369;HTU21D;51970;53.484;49.488;2022-07-18T14:54:49;24.62;74.76
65369;HTU21D;51970;53.484;49.488;2022-07-18T14:57:15;24.48;77.14
65369;HTU21D;51970;53.484;49.488;2022-07-18T14:59:42;24.39;77.40
65369;HTU21D;51970;53.484;49.488;2022-07-18T15:02:08;24.20;79.17
65369;HTU21D;51970;53.484;49.488;2022-07-18T15:04:35;24.10;76.21
65369;HTU21D;51970;53.484;49.488;2022-07-18T15:07:02;24.04;76.98
65369;HTU21D;51970;53.484;49.488;2022-07-18T15:09:28;23.92;77.50
65369;HTU21D;51970;53.484;49.488;2022-07-18T15:11:54;23.86;79.60
65369;HTU21D;51970;53.484;49.488;2022-07-18T15:14:20;23.68;78.16
65369;HTU21D;51970;53.484;49.488;2022-07-18T15:16:46;23.47;77.36
65369;HTU21D;51970;53.484;49.488;2022-07-18T15:19:12;23.29;77.85
65369;HTU21D;51970;53.484;49.488;2022-07-18T15:21:38;23.21;78.37